This is the latest recevied weather packets stored in our database for station/object HOWARD. If no packets are shown the sender has not sent any weather packets the latest 10 day(s).
| Time | Temp. | Humidity | Pressure | Rain* | Wind** | Luminosity | Snow |
|---|---|---|---|---|---|---|---|
| 1778019108 | 8.89° C | 58% | 1011.1 hPa | 0 mm | - | - | - |
| 1778018509 | 8.33° C | 59% | 1011.1 hPa | 0 mm | - | - | - |
| 1778017908 | 7.78° C | 59% | 1011.1 hPa | 0 mm | - | - | - |
| 1778017309 | 8.33° C | 58% | 1011.1 hPa | 0 mm | - | - | - |
| 1778016708 | 8.33° C | 59% | 1011.2 hPa | 0 mm | - | - | - |
| 1778016108 | 8.33° C | 60% | 1011.1 hPa | 0 mm | - | - | - |
| 1778015508 | 7.78° C | 62% | 1011.1 hPa | 0 mm | - | - | - |
| 1778014909 | 8.33° C | 59% | 1011.2 hPa | 0 mm | - | - | - |
| 1778014308 | 8.33° C | 60% | 1011.2 hPa | 0 mm | - | - | - |
| 1778013708 | 7.78° C | 63% | 1011.2 hPa | 0 mm | - | - | - |
| 1778013109 | 8.89° C | 59% | 1011.1 hPa | 0 mm | - | - | - |
| 1778012508 | 8.33° C | 62% | 1011.1 hPa | 0 mm | - | - | - |
| 1778011908 | 8.89° C | 59% | 1011.1 hPa | 0 mm | - | - | - |
| 1778011309 | 7.78° C | 59% | 1011.2 hPa | 0 mm | - | - | - |
| 1778010708 | 7.22° C | 62% | 1011.2 hPa | 0 mm | - | - | - |
| 1778010108 | 7.22° C | 62% | 1011.3 hPa | 0 mm | - | - | - |
| 1778009509 | 7.78° C | 61% | 1011.1 hPa | 0 mm | - | - | - |
| 1778008908 | 7.22° C | 63% | 1011.1 hPa | 0 mm | - | - | - |
| 1778008308 | 7.22° C | 62% | 1011.2 hPa | 0 mm | - | - | - |
| 1778007710 | 7.22° C | 62% | 1011.1 hPa | 0 mm | - | - | - |
| 1778007108 | 7.22° C | 63% | 1011 hPa | 0 mm | - | - | - |
| 1778006547 | 7.22° C | 61% | 1011 hPa | 0 mm | - | - | - |
| 1778006508 | 7.22° C | 61% | 1011 hPa | 0 mm | - | - | - |
| 1778005908 | 8.89° C | 60% | 1010.8 hPa | 0 mm | - | - | - |
| 1778005308 | 7.22° C | 60% | 1010.8 hPa | 0 mm | - | - | - |
* Rain latest hour (hover to see other rain measurements)
** Current wind speed in m/s (hover to see current wind gust speed)